sensor_id;sensor_type;location;lat;lon;timestamp;temperature;humidity
9941;DHT22;5009;50.656;7.188;2023-04-28T04:02:46;12.20;99.90
9941;DHT22;5009;50.656;7.188;2023-04-28T04:05:12;12.20;99.90
9941;DHT22;5009;50.656;7.188;2023-04-28T04:07:37;12.20;99.90
9941;DHT22;5009;50.656;7.188;2023-04-28T04:10:03;12.20;99.90
9941;DHT22;5009;50.656;7.188;2023-04-28T04:12:29;12.20;99.90
9941;DHT22;5009;50.656;7.188;2023-04-28T04:14:54;12.20;99.90
9941;DHT22;5009;50.656;7.188;2023-04-28T04:17:20;12.10;99.90
9941;DHT22;5009;50.656;7.188;2023-04-28T04:19:45;12.20;99.90
9941;DHT22;5009;50.656;7.188;2023-04-28T04:22:11;12.20;99.90
9941;DHT22;5009;50.656;7.188;2023-04-28T04:24:36;12.20;99.90
9941;DHT22;5009;50.656;7.188;2023-04-28T04:27:02;12.10;99.90
9941;DHT22;5009;50.656;7.188;2023-04-28T04:29:27;12.10;99.90
9941;DHT22;5009;50.656;7.188;2023-04-28T04:31:53;12.10;99.90
9941;DHT22;5009;50.656;7.188;2023-04-28T04:34:18;12.10;99.90
9941;DHT22;5009;50.656;7.188;2023-04-28T04:36:44;12.00;99.90
9941;DHT22;5009;50.656;7.188;2023-04-28T04:39:09;12.00;99.90
9941;DHT22;5009;50.656;7.188;2023-04-28T04:41:35;11.90;99.90
9941;DHT22;5009;50.656;7.188;2023-04-28T04:44:00;11.90;99.90
9941;DHT22;5009;50.656;7.188;2023-04-28T04:46:26;11.90;99.90
9941;DHT22;5009;50.656;7.188;2023-04-28T04:48:51;11.90;99.90
9941;DHT22;5009;50.656;7.188;2023-04-28T04:51:17;11.90;99.90
9941;DHT22;5009;50.656;7.188;2023-04-28T04:53:43;11.80;99.90
9941;DHT22;5009;50.656;7.188;2023-04-28T04:56:09;11.90;99.90
9941;DHT22;5009;50.656;7.188;2023-04-28T04:58:35;11.90;99.90
9941;DHT22;5009;50.656;7.188;2023-04-28T05:01:01;11.90;99.90
9941;DHT22;5009;50.656;7.188;2023-04-28T05:03:27;11.90;99.90
9941;DHT22;5009;50.656;7.188;2023-04-28T05:05:53;11.90;99.90
9941;DHT22;5009;50.656;7.188;2023-04-28T05:08:18;11.80;99.90
9941;DHT22;5009;50.656;7.188;2023-04-28T05:10:44;11.80;99.90
9941;DHT22;5009;50.656;7.188;2023-04-28T05:13:09;11.80;99.90
9941;DHT22;5009;50.656;7.188;2023-04-28T05:15:35;11.90;99.90
9941;DHT22;5009;50.656;7.188;2023-04-28T05:18:00;11.90;99.90
9941;DHT22;5009;50.656;7.188;2023-04-28T05:20:30;11.90;99.90
9941;DHT22;5009;50.656;7.188;2023-04-28T05:22:56;12.00;99.90
9941;DHT22;5009;50.656;7.188;2023-04-28T05:25:21;12.00;99.90
9941;DHT22;5009;50.656;7.188;2023-04-28T05:27:47;12.00;99.90
9941;DHT22;5009;50.656;7.188;2023-04-28T05:30:13;12.10;99.90
9941;DHT22;5009;50.656;7.188;2023-04-28T05:32:39;12.00;99.90
9941;DHT22;5009;50.656;7.188;2023-04-28T05:35:05;12.00;99.90
9941;DHT22;5009;50.656;7.188;2023-04-28T05:37:31;11.90;99.90
9941;DHT22;5009;50.656;7.188;2023-04-28T05:39:57;11.90;99.90
9941;DHT22;5009;50.656;7.188;2023-04-28T05:42:22;11.90;99.90
9941;DHT22;5009;50.656;7.188;2023-04-28T05:44:48;11.90;99.90
9941;DHT22;5009;50.656;7.188;2023-04-28T05:47:13;11.90;99.90
9941;DHT22;5009;50.656;7.188;2023-04-28T05:49:39;11.80;99.90
9941;DHT22;5009;50.656;7.188;2023-04-28T05:52:04;12.00;99.90
9941;DHT22;5009;50.656;7.188;2023-04-28T05:54:30;12.00;99.90
9941;DHT22;5009;50.656;7.188;2023-04-28T05:56:56;12.10;99.90
9941;DHT22;5009;50.656;7.188;2023-04-28T05:59:22;12.10;99.90
9941;DHT22;5009;50.656;7.188;2023-04-28T06:01:48;12.10;99.90
9941;DHT22;5009;50.656;7.188;2023-04-28T06:04:15;12.20;99.90
9941;DHT22;5009;50.656;7.188;2023-04-28T06:06:41;12.20;99.90
9941;DHT22;5009;50.656;7.188;2023-04-28T06:09:06;12.10;99.90
9941;DHT22;5009;50.656;7.188;2023-04-28T06:11:32;12.10;99.90
9941;DHT22;5009;50.656;7.188;2023-04-28T06:13:57;12.10;99.90
9941;DHT22;5009;50.656;7.188;2023-04-28T06:16:23;12.00;99.90
9941;DHT22;5009;50.656;7.188;2023-04-28T06:18:48;12.00;99.90
9941;DHT22;5009;50.656;7.188;2023-04-28T06:21:15;12.00;99.90
9941;DHT22;5009;50.656;7.188;2023-04-28T06:23:41;11.90;99.90
9941;DHT22;5009;50.656;7.188;2023-04-28T06:26:07;11.80;99.90
9941;DHT22;5009;50.656;7.188;2023-04-28T06:28:33;11.90;99.90
9941;DHT22;5009;50.656;7.188;2023-04-28T06:30:59;11.90;99.90
9941;DHT22;5009;50.656;7.188;2023-04-28T06:33:25;11.90;99.90
9941;DHT22;5009;50.656;7.188;2023-04-28T06:35:51;11.90;99.90
9941;DHT22;5009;50.656;7.188;2023-04-28T06:38:17;11.90;99.90
9941;DHT22;5009;50.656;7.188;2023-04-28T06:40:42;12.00;99.90
9941;DHT22;5009;50.656;7.188;2023-04-28T06:43:09;12.30;99.90
9941;DHT22;5009;50.656;7.188;2023-04-28T06:45:35;12.50;99.90
9941;DHT22;5009;50.656;7.188;2023-04-28T06:48:01;12.80;99.90
9941;DHT22;5009;50.656;7.188;2023-04-28T06:50:26;13.10;99.90
9941;DHT22;5009;50.656;7.188;2023-04-28T06:52:52;13.10;99.90
9941;DHT22;5009;50.656;7.188;2023-04-28T06:55:17;13.30;99.90
9941;DHT22;5009;50.656;7.188;2023-04-28T06:57:43;13.40;99.90
9941;DHT22;5009;50.656;7.188;2023-04-28T07:00:10;13.50;99.90
9941;DHT22;5009;50.656;7.188;2023-04-28T07:02:35;13.40;99.90
9941;DHT22;5009;50.656;7.188;2023-04-28T07:05:02;13.30;99.90
9941;DHT22;5009;50.656;7.188;2023-04-28T07:07:28;13.40;99.90
9941;DHT22;5009;50.656;7.188;2023-04-28T07:09:54;13.40;99.90
9941;DHT22;5009;50.656;7.188;2023-04-28T07:12:20;13.40;99.90
9941;DHT22;5009;50.656;7.188;2023-04-28T07:14:46;13.40;99.90
9941;DHT22;5009;50.656;7.188;2023-04-28T07:17:12;13.40;99.90
9941;DHT22;5009;50.656;7.188;2023-04-28T07:19:37;13.40;99.90
9941;DHT22;5009;50.656;7.188;2023-04-28T07:22:03;13.50;99.90
9941;DHT22;5009;50.656;7.188;2023-04-28T07:24:28;13.60;99.90
9941;DHT22;5009;50.656;7.188;2023-04-28T07:26:55;13.60;99.90
9941;DHT22;5009;50.656;7.188;2023-04-28T07:29:21;13.60;99.90
9941;DHT22;5009;50.656;7.188;2023-04-28T07:31:47;13.60;99.90
9941;DHT22;5009;50.656;7.188;2023-04-28T07:34:12;13.50;99.90
9941;DHT22;5009;50.656;7.188;2023-04-28T07:36:38;13.50;99.90
9941;DHT22;5009;50.656;7.188;2023-04-28T07:39:03;13.50;99.90
9941;DHT22;5009;50.656;7.188;2023-04-28T07:41:29;13.60;99.90
9941;DHT22;5009;50.656;7.188;2023-04-28T07:43:54;13.80;99.90
9941;DHT22;5009;50.656;7.188;2023-04-28T07:46:20;14.00;99.90
9941;DHT22;5009;50.656;7.188;2023-04-28T07:48:47;14.40;99.90
9941;DHT22;5009;50.656;7.188;2023-04-28T07:51:12;14.70;99.90
9941;DHT22;5009;50.656;7.188;2023-04-28T07:53:38;14.90;99.90
9941;DHT22;5009;50.656;7.188;2023-04-28T07:56:03;15.00;99.90
9941;DHT22;5009;50.656;7.188;2023-04-28T07:58:30;15.10;99.90
9941;DHT22;5009;50.656;7.188;2023-04-28T08:00:55;15.00;99.90
9941;DHT22;5009;50.656;7.188;2023-04-28T08:03:21;15.10;99.90
9941;DHT22;5009;50.656;7.188;2023-04-28T08:05:46;14.90;99.90
9941;DHT22;5009;50.656;7.188;2023-04-28T08:08:12;14.70;99.90
9941;DHT22;5009;50.656;7.188;2023-04-28T08:10:37;14.70;99.90
9941;DHT22;5009;50.656;7.188;2023-04-28T08:13:06;14.60;99.90
9941;DHT22;5009;50.656;7.188;2023-04-28T08:15:32;14.60;99.90
9941;DHT22;5009;50.656;7.188;2023-04-28T08:17:57;14.60;99.90
9941;DHT22;5009;50.656;7.188;2023-04-28T08:20:23;14.60;99.90
9941;DHT22;5009;50.656;7.188;2023-04-28T08:22:49;14.60;99.90
9941;DHT22;5009;50.656;7.188;2023-04-28T08:25:15;14.90;99.90
9941;DHT22;5009;50.656;7.188;2023-04-28T08:27:40;14.90;99.90
9941;DHT22;5009;50.656;7.188;2023-04-28T08:30:07;15.20;99.90
9941;DHT22;5009;50.656;7.188;2023-04-28T08:32:33;15.20;99.90
9941;DHT22;5009;50.656;7.188;2023-04-28T08:34:59;15.20;99.90
9941;DHT22;5009;50.656;7.188;2023-04-28T08:37:25;15.20;99.90
9941;DHT22;5009;50.656;7.188;2023-04-28T08:39:51;15.20;99.90
9941;DHT22;5009;50.656;7.188;2023-04-28T08:42:28;15.20;99.90
9941;DHT22;5009;50.656;7.188;2023-04-28T08:44:55;15.30;99.90
9941;DHT22;5009;50.656;7.188;2023-04-28T08:47:34;15.30;99.90
9941;DHT22;5009;50.656;7.188;2023-04-28T08:50:04;15.50;99.90
9941;DHT22;5009;50.656;7.188;2023-04-28T08:52:30;15.30;99.90
9941;DHT22;5009;50.656;7.188;2023-04-28T08:54:58;15.40;99.90
9941;DHT22;5009;50.656;7.188;2023-04-28T08:57:26;15.50;99.90
9941;DHT22;5009;50.656;7.188;2023-04-28T08:59:52;15.50;99.90
9941;DHT22;5009;50.656;7.188;2023-04-28T09:02:18;15.50;99.90
9941;DHT22;5009;50.656;7.188;2023-04-28T09:04:46;15.60;99.90
9941;DHT22;5009;50.656;7.188;2023-04-28T09:07:12;15.70;99.90
9941;DHT22;5009;50.656;7.188;2023-04-28T09:09:38;15.80;99.90
9941;DHT22;5009;50.656;7.188;2023-04-28T09:12:05;15.80;99.90
9941;DHT22;5009;50.656;7.188;2023-04-28T09:14:32;15.80;99.90
9941;DHT22;5009;50.656;7.188;2023-04-28T09:16:58;15.90;99.90
9941;DHT22;5009;50.656;7.188;2023-04-28T09:19:35;16.00;99.90
9941;DHT22;5009;50.656;7.188;2023-04-28T09:22:01;15.90;99.90
9941;DHT22;5009;50.656;7.188;2023-04-28T09:24:34;15.90;99.90
9941;DHT22;5009;50.656;7.188;2023-04-28T09:27:03;16.00;99.90
9941;DHT22;5009;50.656;7.188;2023-04-28T09:29:29;16.20;99.90
9941;DHT22;5009;50.656;7.188;2023-04-28T09:32:14;16.30;99.90
9941;DHT22;5009;50.656;7.188;2023-04-28T09:34:42;16.60;99.90
9941;DHT22;5009;50.656;7.188;2023-04-28T09:37:16;16.80;99.90
9941;DHT22;5009;50.656;7.188;2023-04-28T09:39:43;17.00;99.90
9941;DHT22;5009;50.656;7.188;2023-04-28T09:42:09;17.00;99.90
9941;DHT22;5009;50.656;7.188;2023-04-28T09:44:35;17.20;99.90
9941;DHT22;5009;50.656;7.188;2023-04-28T09:47:18;17.10;99.90
9941;DHT22;5009;50.656;7.188;2023-04-28T09:49:58;17.20;99.90
9941;DHT22;5009;50.656;7.188;2023-04-28T09:52:25;17.20;99.90
9941;DHT22;5009;50.656;7.188;2023-04-28T09:54:54;17.00;99.90
9941;DHT22;5009;50.656;7.188;2023-04-28T09:57:20;17.20;99.90
9941;DHT22;5009;50.656;7.188;2023-04-28T09:59:48;17.20;99.90
9941;DHT22;5009;50.656;7.188;2023-04-28T10:02:18;17.00;99.90
9941;DHT22;5009;50.656;7.188;2023-04-28T10:04:47;16.80;99.90
9941;DHT22;5009;50.656;7.188;2023-04-28T10:07:20;16.80;99.90
9941;DHT22;5009;50.656;7.188;2023-04-28T10:09:50;16.70;99.90
9941;DHT22;5009;50.656;7.188;2023-04-28T10:12:23;16.60;99.90
9941;DHT22;5009;50.656;7.188;2023-04-28T10:14:49;16.60;99.90
9941;DHT22;5009;50.656;7.188;2023-04-28T10:17:18;16.60;99.90
9941;DHT22;5009;50.656;7.188;2023-04-28T10:19:45;16.50;99.90
9941;DHT22;5009;50.656;7.188;2023-04-28T10:27:43;16.80;99.90
9941;DHT22;5009;50.656;7.188;2023-04-28T10:30:13;16.90;99.90
9941;DHT22;5009;50.656;7.188;2023-04-28T10:32:39;17.10;99.90
9941;DHT22;5009;50.656;7.188;2023-04-28T10:40:32;17.20;99.90
9941;DHT22;5009;50.656;7.188;2023-04-28T10:42:58;17.30;99.90
9941;DHT22;5009;50.656;7.188;2023-04-28T10:48:22;17.50;99.90
9941;DHT22;5009;50.656;7.188;2023-04-28T10:58:54;17.40;99.90
9941;DHT22;5009;50.656;7.188;2023-04-28T11:01:27;17.60;99.90
9941;DHT22;5009;50.656;7.188;2023-04-28T11:03:55;18.00;99.90
9941;DHT22;5009;50.656;7.188;2023-04-28T11:06:33;18.20;99.90
9941;DHT22;5009;50.656;7.188;2023-04-28T11:11:38;18.80;99.90
9941;DHT22;5009;50.656;7.188;2023-04-28T11:17:05;19.30;99.90
9941;DHT22;5009;50.656;7.188;2023-04-28T11:19:38;19.20;99.90
9941;DHT22;5009;50.656;7.188;2023-04-28T11:22:14;19.20;99.90
9941;DHT22;5009;50.656;7.188;2023-04-28T11:24:40;19.20;99.90
9941;DHT22;5009;50.656;7.188;2023-04-28T11:27:06;19.20;99.90
9941;DHT22;5009;50.656;7.188;2023-04-28T11:29:39;19.30;99.90
9941;DHT22;5009;50.656;7.188;2023-04-28T11:32:06;19.30;99.90
9941;DHT22;5009;50.656;7.188;2023-04-28T11:34:33;19.40;99.90
9941;DHT22;5009;50.656;7.188;2023-04-28T11:36:59;19.40;99.90
9941;DHT22;5009;50.656;7.188;2023-04-28T11:39:30;19.50;99.90
9941;DHT22;5009;50.656;7.188;2023-04-28T11:41:57;19.60;99.90
9941;DHT22;5009;50.656;7.188;2023-04-28T11:44:26;19.50;99.90
9941;DHT22;5009;50.656;7.188;2023-04-28T11:47:01;19.40;99.90
9941;DHT22;5009;50.656;7.188;2023-04-28T11:49:43;19.40;99.90
9941;DHT22;5009;50.656;7.188;2023-04-28T11:52:09;19.40;99.90
9941;DHT22;5009;50.656;7.188;2023-04-28T11:54:36;19.30;99.90
9941;DHT22;5009;50.656;7.188;2023-04-28T11:57:03;19.30;99.90
9941;DHT22;5009;50.656;7.188;2023-04-28T11:59:38;19.30;99.90
9941;DHT22;5009;50.656;7.188;2023-04-28T12:02:05;19.30;99.90
9941;DHT22;5009;50.656;7.188;2023-04-28T12:09:33;19.20;99.90
9941;DHT22;5009;50.656;7.188;2023-04-28T12:12:04;19.20;99.90
9941;DHT22;5009;50.656;7.188;2023-04-28T12:14:31;19.30;99.90
9941;DHT22;5009;50.656;7.188;2023-04-28T12:17:00;19.40;99.90
9941;DHT22;5009;50.656;7.188;2023-04-28T12:19:26;19.50;99.90
9941;DHT22;5009;50.656;7.188;2023-04-28T12:22:18;19.70;99.90
9941;DHT22;5009;50.656;7.188;2023-04-28T12:24:43;19.90;99.90
9941;DHT22;5009;50.656;7.188;2023-04-28T12:27:19;19.90;99.90
9941;DHT22;5009;50.656;7.188;2023-04-28T12:29:50;19.90;99.90
9941;DHT22;5009;50.656;7.188;2023-04-28T12:32:16;19.90;99.90
9941;DHT22;5009;50.656;7.188;2023-04-28T12:34:44;20.00;99.90
9941;DHT22;5009;50.656;7.188;2023-04-28T12:37:10;19.90;99.90
9941;DHT22;5009;50.656;7.188;2023-04-28T12:39:38;19.90;99.90
9941;DHT22;5009;50.656;7.188;2023-04-28T12:42:04;19.70;99.90
9941;DHT22;5009;50.656;7.188;2023-04-28T12:44:37;19.70;99.90
9941;DHT22;5009;50.656;7.188;2023-04-28T12:47:07;19.70;99.90
9941;DHT22;5009;50.656;7.188;2023-04-28T12:49:36;19.70;99.90
9941;DHT22;5009;50.656;7.188;2023-04-28T12:52:03;19.60;99.90
9941;DHT22;5009;50.656;7.188;2023-04-28T12:54:29;19.60;99.90
9941;DHT22;5009;50.656;7.188;2023-04-28T12:56:54;19.30;99.90
9941;DHT22;5009;50.656;7.188;2023-04-28T12:59:21;19.40;99.90
9941;DHT22;5009;50.656;7.188;2023-04-28T13:01:47;19.60;99.90
9941;DHT22;5009;50.656;7.188;2023-04-28T13:04:13;19.60;99.90
9941;DHT22;5009;50.656;7.188;2023-04-28T13:06:39;19.80;99.90
9941;DHT22;5009;50.656;7.188;2023-04-28T13:09:12;19.80;99.90
9941;DHT22;5009;50.656;7.188;2023-04-28T13:11:39;20.00;99.90
9941;DHT22;5009;50.656;7.188;2023-04-28T13:14:04;20.10;99.90
9941;DHT22;5009;50.656;7.188;2023-04-28T13:16:30;20.10;99.90
9941;DHT22;5009;50.656;7.188;2023-04-28T13:18:56;19.90;99.90
9941;DHT22;5009;50.656;7.188;2023-04-28T13:21:25;19.80;99.90
9941;DHT22;5009;50.656;7.188;2023-04-28T13:23:54;19.70;99.90
9941;DHT22;5009;50.656;7.188;2023-04-28T13:26:20;19.70;99.90
9941;DHT22;5009;50.656;7.188;2023-04-28T13:28:49;19.80;99.90
9941;DHT22;5009;50.656;7.188;2023-04-28T13:31:15;19.80;99.90
9941;DHT22;5009;50.656;7.188;2023-04-28T13:33:40;19.80;99.90
9941;DHT22;5009;50.656;7.188;2023-04-28T13:36:06;19.80;99.90
9941;DHT22;5009;50.656;7.188;2023-04-28T13:38:33;19.90;99.90
9941;DHT22;5009;50.656;7.188;2023-04-28T13:40:58;20.00;99.90
9941;DHT22;5009;50.656;7.188;2023-04-28T13:43:25;20.00;99.90
9941;DHT22;5009;50.656;7.188;2023-04-28T13:45:50;20.20;99.90
9941;DHT22;5009;50.656;7.188;2023-04-28T13:48:16;20.10;99.90
9941;DHT22;5009;50.656;7.188;2023-04-28T13:50:42;20.20;99.90
9941;DHT22;5009;50.656;7.188;2023-04-28T13:53:07;20.30;99.90
9941;DHT22;5009;50.656;7.188;2023-04-28T13:55:33;20.40;99.90
9941;DHT22;5009;50.656;7.188;2023-04-28T13:57:58;20.40;99.90
9941;DHT22;5009;50.656;7.188;2023-04-28T14:00:28;20.50;99.90
9941;DHT22;5009;50.656;7.188;2023-04-28T14:02:55;20.30;99.90
9941;DHT22;5009;50.656;7.188;2023-04-28T14:05:21;20.40;99.90
9941;DHT22;5009;50.656;7.188;2023-04-28T14:07:47;20.60;99.90
9941;DHT22;5009;50.656;7.188;2023-04-28T14:10:12;20.70;99.90
9941;DHT22;5009;50.656;7.188;2023-04-28T14:12:38;20.80;99.90
9941;DHT22;5009;50.656;7.188;2023-04-28T14:15:04;20.80;99.90
9941;DHT22;5009;50.656;7.188;2023-04-28T14:17:31;20.90;99.90
9941;DHT22;5009;50.656;7.188;2023-04-28T14:19:59;20.90;99.90
9941;DHT22;5009;50.656;7.188;2023-04-28T14:22:26;20.80;99.90
9941;DHT22;5009;50.656;7.188;2023-04-28T14:24:51;20.90;99.90
9941;DHT22;5009;50.656;7.188;2023-04-28T14:27:17;20.70;99.90
9941;DHT22;5009;50.656;7.188;2023-04-28T14:29:43;20.80;99.90
9941;DHT22;5009;50.656;7.188;2023-04-28T14:32:12;20.90;99.90
9941;DHT22;5009;50.656;7.188;2023-04-28T14:34:38;21.00;99.90
9941;DHT22;5009;50.656;7.188;2023-04-28T14:37:04;21.00;99.90
9941;DHT22;5009;50.656;7.188;2023-04-28T14:39:30;20.80;99.90
9941;DHT22;5009;50.656;7.188;2023-04-28T14:41:56;20.90;99.90
9941;DHT22;5009;50.656;7.188;2023-04-28T14:44:21;20.80;99.90
9941;DHT22;5009;50.656;7.188;2023-04-28T14:46:47;20.90;99.90
9941;DHT22;5009;50.656;7.188;2023-04-28T14:49:13;20.90;99.90
9941;DHT22;5009;50.656;7.188;2023-04-28T14:51:38;20.70;99.90
9941;DHT22;5009;50.656;7.188;2023-04-28T14:54:04;20.70;99.90
9941;DHT22;5009;50.656;7.188;2023-04-28T14:56:29;20.70;99.90
9941;DHT22;5009;50.656;7.188;2023-04-28T14:58:55;20.60;99.90
9941;DHT22;5009;50.656;7.188;2023-04-28T15:01:21;20.40;99.90
9941;DHT22;5009;50.656;7.188;2023-04-28T15:03:46;20.40;99.90
9941;DHT22;5009;50.656;7.188;2023-04-28T15:06:12;20.40;99.90
9941;DHT22;5009;50.656;7.188;2023-04-28T15:08:37;20.40;99.90
9941;DHT22;5009;50.656;7.188;2023-04-28T15:11:04;20.50;99.90
9941;DHT22;5009;50.656;7.188;2023-04-28T15:13:30;20.50;99.90
9941;DHT22;5009;50.656;7.188;2023-04-28T15:15:56;20.60;99.90
9941;DHT22;5009;50.656;7.188;2023-04-28T15:18:22;20.80;99.90
9941;DHT22;5009;50.656;7.188;2023-04-28T15:20:50;20.90;99.90
9941;DHT22;5009;50.656;7.188;2023-04-28T15:23:16;21.20;99.90
9941;DHT22;5009;50.656;7.188;2023-04-28T15:25:42;21.30;99.90
9941;DHT22;5009;50.656;7.188;2023-04-28T15:28:07;21.30;99.90
9941;DHT22;5009;50.656;7.188;2023-04-28T15:30:33;21.40;99.90
9941;DHT22;5009;50.656;7.188;2023-04-28T15:32:59;21.30;99.90
9941;DHT22;5009;50.656;7.188;2023-04-28T15:35:24;21.30;99.90
9941;DHT22;5009;50.656;7.188;2023-04-28T15:37:50;21.20;99.70
9941;DHT22;5009;50.656;7.188;2023-04-28T15:40:17;21.30;98.70
9941;DHT22;5009;50.656;7.188;2023-04-28T15:42:44;21.30;98.30
9941;DHT22;5009;50.656;7.188;2023-04-28T15:45:14;21.30;97.20
9941;DHT22;5009;50.656;7.188;2023-04-28T15:47:41;21.30;96.70
9941;DHT22;5009;50.656;7.188;2023-04-28T15:50:08;21.30;96.40
9941;DHT22;5009;50.656;7.188;2023-04-28T15:52:37;21.30;95.60
9941;DHT22;5009;50.656;7.188;2023-04-28T15:55:05;21.20;94.80
9941;DHT22;5009;50.656;7.188;2023-04-28T15:57:32;21.10;94.70
9941;DHT22;5009;50.656;7.188;2023-04-28T15:59:58;21.10;94.30
9941;DHT22;5009;50.656;7.188;2023-04-28T16:02:23;21.10;94.30
9941;DHT22;5009;50.656;7.188;2023-04-28T16:04:49;21.00;94.60
9941;DHT22;5009;50.656;7.188;2023-04-28T16:07:15;21.00;94.80
9941;DHT22;5009;50.656;7.188;2023-04-28T16:09:40;21.00;94.80
9941;DHT22;5009;50.656;7.188;2023-04-28T16:12:06;20.90;94.50
9941;DHT22;5009;50.656;7.188;2023-04-28T16:14:32;20.90;94.20
9941;DHT22;5009;50.656;7.188;2023-04-28T16:16:58;20.90;93.80
9941;DHT22;5009;50.656;7.188;2023-04-28T16:19:23;20.80;93.40
9941;DHT22;5009;50.656;7.188;2023-04-28T16:21:50;20.80;93.20
9941;DHT22;5009;50.656;7.188;2023-04-28T16:24:15;20.80;93.40
9941;DHT22;5009;50.656;7.188;2023-04-28T16:26:41;20.70;93.60
9941;DHT22;5009;50.656;7.188;2023-04-28T16:29:07;20.50;93.50
9941;DHT22;5009;50.656;7.188;2023-04-28T16:31:32;20.50;93.50
9941;DHT22;5009;50.656;7.188;2023-04-28T16:33:58;20.40;93.80
9941;DHT22;5009;50.656;7.188;2023-04-28T16:36:24;20.40;93.80
9941;DHT22;5009;50.656;7.188;2023-04-28T16:38:49;20.30;93.70
9941;DHT22;5009;50.656;7.188;2023-04-28T16:41:15;20.30;94.00
9941;DHT22;5009;50.656;7.188;2023-04-28T16:43:41;20.20;94.00
9941;DHT22;5009;50.656;7.188;2023-04-28T16:46:07;20.10;94.00
9941;DHT22;5009;50.656;7.188;2023-04-28T16:48:32;20.10;94.30
9941;DHT22;5009;50.656;7.188;2023-04-28T16:50:58;20.00;94.50
9941;DHT22;5009;50.656;7.188;2023-04-28T16:53:23;20.00;95.00
9941;DHT22;5009;50.656;7.188;2023-04-28T16:55:49;20.00;95.40
9941;DHT22;5009;50.656;7.188;2023-04-28T16:58:14;20.00;95.70
9941;DHT22;5009;50.656;7.188;2023-04-28T17:00:40;20.00;96.10
9941;DHT22;5009;50.656;7.188;2023-04-28T17:03:06;19.90;96.10
9941;DHT22;5009;50.656;7.188;2023-04-28T17:05:31;19.90;96.30
9941;DHT22;5009;50.656;7.188;2023-04-28T17:07:57;19.90;96.20
9941;DHT22;5009;50.656;7.188;2023-04-28T17:10:23;19.80;96.30
9941;DHT22;5009;50.656;7.188;2023-04-28T17:12:50;19.60;96.80
9941;DHT22;5009;50.656;7.188;2023-04-28T17:15:15;19.40;97.50
9941;DHT22;5009;50.656;7.188;2023-04-28T17:17:48;19.20;97.80
9941;DHT22;5009;50.656;7.188;2023-04-28T17:20:14;19.10;98.40
9941;DHT22;5009;50.656;7.188;2023-04-28T17:22:45;19.00;98.40
9941;DHT22;5009;50.656;7.188;2023-04-28T17:25:11;19.00;98.70
9941;DHT22;5009;50.656;7.188;2023-04-28T17:27:36;18.80;98.50
9941;DHT22;5009;50.656;7.188;2023-04-28T17:30:03;18.80;99.00
9941;DHT22;5009;50.656;7.188;2023-04-28T17:32:29;18.80;99.00
9941;DHT22;5009;50.656;7.188;2023-04-28T17:34:56;18.80;98.90
9941;DHT22;5009;50.656;7.188;2023-04-28T17:37:21;18.80;98.50
9941;DHT22;5009;50.656;7.188;2023-04-28T17:39:50;18.70;98.70
9941;DHT22;5009;50.656;7.188;2023-04-28T17:42:16;18.70;98.70
9941;DHT22;5009;50.656;7.188;2023-04-28T17:44:42;18.60;98.70
9941;DHT22;5009;50.656;7.188;2023-04-28T17:47:08;18.50;98.80
9941;DHT22;5009;50.656;7.188;2023-04-28T17:49:34;18.50;99.10
9941;DHT22;5009;50.656;7.188;2023-04-28T17:51:59;18.40;99.40
9941;DHT22;5009;50.656;7.188;2023-04-28T17:54:25;18.30;99.40
9941;DHT22;5009;50.656;7.188;2023-04-28T17:56:51;18.30;99.50
9941;DHT22;5009;50.656;7.188;2023-04-28T17:59:17;18.20;99.40
9941;DHT22;5009;50.656;7.188;2023-04-28T18:01:43;18.20;99.40
9941;DHT22;5009;50.656;7.188;2023-04-28T18:04:08;18.10;99.20
9941;DHT22;5009;50.656;7.188;2023-04-28T18:06:34;18.00;99.30
9941;DHT22;5009;50.656;7.188;2023-04-28T18:08:59;18.00;99.10
9941;DHT22;5009;50.656;7.188;2023-04-28T18:11:25;18.00;98.90
9941;DHT22;5009;50.656;7.188;2023-04-28T18:13:52;17.90;98.70
9941;DHT22;5009;50.656;7.188;2023-04-28T18:16:18;17.90;98.60
9941;DHT22;5009;50.656;7.188;2023-04-28T18:18:44;17.90;98.70
9941;DHT22;5009;50.656;7.188;2023-04-28T18:21:09;17.80;98.50
9941;DHT22;5009;50.656;7.188;2023-04-28T18:23:35;17.70;98.40
9941;DHT22;5009;50.656;7.188;2023-04-28T18:26:00;17.60;98.20
9941;DHT22;5009;50.656;7.188;2023-04-28T18:28:26;17.60;97.90
9941;DHT22;5009;50.656;7.188;2023-04-28T18:30:52;17.50;97.60
9941;DHT22;5009;50.656;7.188;2023-04-28T18:33:18;17.50;97.50
9941;DHT22;5009;50.656;7.188;2023-04-28T18:35:43;17.40;97.60
9941;DHT22;5009;50.656;7.188;2023-04-28T18:38:11;17.30;97.70
9941;DHT22;5009;50.656;7.188;2023-04-28T18:40:37;17.30;97.80
9941;DHT22;5009;50.656;7.188;2023-04-28T18:43:07;17.30;97.80
9941;DHT22;5009;50.656;7.188;2023-04-28T18:45:36;17.30;98.00
9941;DHT22;5009;50.656;7.188;2023-04-28T18:48:05;17.20;97.80
9941;DHT22;5009;50.656;7.188;2023-04-28T18:50:31;17.20;97.80
9941;DHT22;5009;50.656;7.188;2023-04-28T18:52:59;17.20;97.70
9941;DHT22;5009;50.656;7.188;2023-04-28T18:55:25;17.20;97.80
9941;DHT22;5009;50.656;7.188;2023-04-28T18:57:51;17.20;97.70
9941;DHT22;5009;50.656;7.188;2023-04-28T19:00:17;17.20;97.80
9941;DHT22;5009;50.656;7.188;2023-04-28T19:02:43;17.20;97.60
9941;DHT22;5009;50.656;7.188;2023-04-28T19:05:09;17.10;97.50
9941;DHT22;5009;50.656;7.188;2023-04-28T19:07:36;17.20;97.40
9941;DHT22;5009;50.656;7.188;2023-04-28T19:10:03;17.10;97.50
9941;DHT22;5009;50.656;7.188;2023-04-28T19:12:28;17.10;97.70
9941;DHT22;5009;50.656;7.188;2023-04-28T19:14:54;17.00;97.60
9941;DHT22;5009;50.656;7.188;2023-04-28T19:17:20;17.10;97.70
9941;DHT22;5009;50.656;7.188;2023-04-28T19:19:45;17.00;97.50
9941;DHT22;5009;50.656;7.188;2023-04-28T19:22:39;17.00;97.50
9941;DHT22;5009;50.656;7.188;2023-04-28T19:25:08;17.00;97.70
9941;DHT22;5009;50.656;7.188;2023-04-28T19:27:36;16.90;97.70
9941;DHT22;5009;50.656;7.188;2023-04-28T19:30:04;16.90;97.70
9941;DHT22;5009;50.656;7.188;2023-04-28T19:32:31;17.00;97.80
9941;DHT22;5009;50.656;7.188;2023-04-28T19:34:56;17.00;97.80
9941;DHT22;5009;50.656;7.188;2023-04-28T19:37:22;16.90;97.80
9941;DHT22;5009;50.656;7.188;2023-04-28T19:39:49;16.90;97.90
9941;DHT22;5009;50.656;7.188;2023-04-28T19:42:15;16.90;97.90
9941;DHT22;5009;50.656;7.188;2023-04-28T19:44:41;16.90;98.00
9941;DHT22;5009;50.656;7.188;2023-04-28T19:47:07;16.90;98.30
9941;DHT22;5009;50.656;7.188;2023-04-28T19:49:33;16.90;98.10
9941;DHT22;5009;50.656;7.188;2023-04-28T19:51:59;16.80;98.10
9941;DHT22;5009;50.656;7.188;2023-04-28T19:54:25;16.70;98.50
9941;DHT22;5009;50.656;7.188;2023-04-28T19:56:51;16.70;98.80
9941;DHT22;5009;50.656;7.188;2023-04-28T19:59:20;16.70;98.70
9941;DHT22;5009;50.656;7.188;2023-04-28T20:01:45;16.70;99.00
9941;DHT22;5009;50.656;7.188;2023-04-28T20:04:11;16.70;99.20
9941;DHT22;5009;50.656;7.188;2023-04-28T20:06:37;16.70;99.40
9941;DHT22;5009;50.656;7.188;2023-04-28T20:09:03;16.60;99.60
9941;DHT22;5009;50.656;7.188;2023-04-28T20:11:30;16.60;99.80
9941;DHT22;5009;50.656;7.188;2023-04-28T20:13:57;16.60;99.90
9941;DHT22;5009;50.656;7.188;2023-04-28T20:16:23;16.60;99.90
9941;DHT22;5009;50.656;7.188;2023-04-28T20:18:49;16.50;99.90
9941;DHT22;5009;50.656;7.188;2023-04-28T20:21:16;16.50;99.90
9941;DHT22;5009;50.656;7.188;2023-04-28T20:23:41;16.50;99.90
9941;DHT22;5009;50.656;7.188;2023-04-28T20:26:14;16.50;99.90
9941;DHT22;5009;50.656;7.188;2023-04-28T20:28:42;16.50;99.90
9941;DHT22;5009;50.656;7.188;2023-04-28T20:31:08;16.50;99.90
9941;DHT22;5009;50.656;7.188;2023-04-28T20:33:34;16.50;99.90